Time;durP1;ratioP1;P1;durP2;ratioP2;P2;SDS_P1;SDS_P2;PMS_P1;PMS_P2;Temp;Humidity;BMP_temperature;BMP_pressure;BME280_temperature;BME280_humidity;BME280_pressure;Samples;Min_cycle;Max_cycle;Signal;HPM_P1;HPM_P2
2021/05/19 00:01:29;;;;;;;2.55;1.75;;;;;;;8.72;88.31;98774.81;5027243;28;20045;-69
2021/05/19 00:03:55;;;;;;;2.80;1.80;;;;;;;8.82;87.80;98783.44;5016918;28;20064;-68
2021/05/19 00:06:21;;;;;;;3.55;1.60;;;;;;;8.83;87.07;98781.56;5013271;28;20125;-68
2021/05/19 00:08:46;;;;;;;2.42;1.50;;;;;;;8.68;86.85;98757.34;5031509;28;20071;-69
2021/05/19 00:11:11;;;;;;;3.25;1.30;;;;;;;8.63;86.69;98768.72;5027893;28;20038;-70
2021/05/19 00:13:37;;;;;;;5.63;1.20;;;;;;;8.72;87.48;98785.59;5031403;28;20025;-68
2021/05/19 00:16:04;;;;;;;1.73;1.10;;;;;;;8.72;87.31;98785.59;5030057;28;20071;-68
2021/05/19 00:18:29;;;;;;;2.50;1.40;;;;;;;8.60;87.36;98771.81;5030084;28;20057;-69
2021/05/19 00:20:55;;;;;;;2.85;1.77;;;;;;;8.56;88.04;98771.31;5026121;28;20060;-68
2021/05/19 00:23:20;;;;;;;3.92;2.30;;;;;;;8.39;88.43;98767.22;5012823;28;20029;-68
2021/05/19 00:25:46;;;;;;;5.65;2.35;;;;;;;8.52;89.12;98794.31;5021057;28;20372;-69
2021/05/19 00:28:11;;;;;;;5.13;2.10;;;;;;;8.38;89.58;98778.97;5031131;28;20029;-68
2021/05/19 00:30:38;;;;;;;6.22;2.50;;;;;;;8.36;90.18;98789.13;5027134;28;20025;-69
2021/05/19 00:33:04;;;;;;;9.40;3.15;;;;;;;8.20;90.69;98773.16;5027678;28;20155;-69
2021/05/19 00:35:30;;;;;;;4.93;2.53;;;;;;;8.34;90.77;98801.97;5022771;28;20026;-69
2021/05/19 00:37:56;;;;;;;5.38;2.53;;;;;;;8.31;90.76;98787.00;5026400;28;20078;-69
2021/05/19 00:40:21;;;;;;;3.92;2.85;;;;;;;8.19;90.37;98777.72;5031675;28;20029;-67
2021/05/19 00:42:46;;;;;;;4.78;2.70;;;;;;;8.20;90.74;98775.84;4996305;28;20037;-69
2021/05/19 00:45:13;;;;;;;3.17;2.40;;;;;;;8.26;91.00;98797.50;5015263;28;20029;-68
2021/05/19 00:47:41;;;;;;;3.90;2.70;;;;;;;8.24;91.32;98804.13;5031468;28;20025;-68
2021/05/19 00:50:13;;;;;;;3.50;2.40;;;;;;;8.27;90.60;98788.38;5031151;28;20075;-68
2021/05/19 00:52:38;;;;;;;4.53;2.28;;;;;;;8.40;89.99;98784.22;5014569;28;20030;-67
2021/05/19 00:55:05;;;;;;;3.88;2.30;;;;;;;8.43;89.34;98757.72;5013614;28;20110;-67
2021/05/19 00:57:31;;;;;;;5.82;2.63;;;;;;;8.58;89.10;98784.63;5024827;28;20108;-68
2021/05/19 00:59:58;;;;;;;3.65;2.50;;;;;;;8.52;89.09;98786.25;5031815;28;20544;-68
2021/05/19 01:02:24;;;;;;;4.05;2.40;;;;;;;8.45;89.32;98779.94;5027925;28;20105;-68
2021/05/19 01:04:49;;;;;;;6.78;2.97;;;;;;;8.43;89.00;98781.13;5033599;28;20100;-67
2021/05/19 01:09:46;;;;;;;3.63;2.28;;;;;;;8.40;89.40;98793.13;5035287;28;20037;-68
2021/05/19 01:12:17;;;;;;;5.10;2.15;;;;;;;8.31;89.48;98770.00;5032916;28;20080;-68
2021/05/19 01:14:44;;;;;;;3.00;2.30;;;;;;;8.30;89.04;98768.31;5028820;28;20483;-67
2021/05/19 01:17:10;;;;;;;3.90;2.58;;;;;;;8.49;89.13;98777.72;5033809;28;20075;-68
2021/05/19 01:19:43;;;;;;;4.30;2.30;;;;;;;8.42;88.27;98768.69;5035031;28;20021;-69
2021/05/19 01:22:10;;;;;;;3.33;2.35;;;;;;;8.47;88.30;98771.66;5027856;28;20371;-68
2021/05/19 01:24:38;;;;;;;3.10;2.25;;;;;;;8.51;88.01;98773.78;5015771;28;20040;-68
2021/05/19 01:27:03;;;;;;;3.42;2.30;;;;;;;8.54;88.19;98786.88;5014873;28;20026;-68
2021/05/19 01:29:29;;;;;;;4.05;2.50;;;;;;;8.57;88.54;98777.59;5018731;28;20083;-68
2021/05/19 01:31:54;;;;;;;4.22;1.95;;;;;;;8.68;87.22;98778.94;5029212;28;20034;-68
2021/05/19 01:34:19;;;;;;;3.97;2.08;;;;;;;8.70;87.08;98785.81;5015554;28;20029;-68
2021/05/19 01:36:45;;;;;;;3.67;2.60;;;;;;;8.66;87.07;98775.59;5034591;28;20029;-69
2021/05/19 01:39:10;;;;;;;3.10;2.30;;;;;;;8.47;87.30;98764.41;5024320;28;20026;-68
2021/05/19 01:41:36;;;;;;;2.97;2.10;;;;;;;8.30;87.93;98749.44;5030841;28;20083;-67
2021/05/19 01:44:13;;;;;;;3.08;2.15;;;;;;;8.37;88.53;98777.31;5033441;28;20029;-67
2021/05/19 01:46:39;;;;;;;3.17;2.28;;;;;;;8.21;88.94;98772.16;5016295;28;20124;-68
2021/05/19 01:49:06;;;;;;;7.35;2.65;;;;;;;8.21;89.67;98775.69;5016921;28;20017;-69
2021/05/19 01:51:32;;;;;;;5.05;2.55;;;;;;;8.23;89.77;98776.34;5024652;28;20026;-67
2021/05/19 01:53:58;;;;;;;8.07;2.65;;;;;;;8.18;89.64;98767.16;5020956;28;20028;-68
2021/05/19 01:56:23;;;;;;;4.00;2.78;;;;;;;8.21;89.87;98767.59;5024676;28;20034;-68
2021/05/19 01:58:49;;;;;;;3.65;2.28;;;;;;;8.34;89.25;98775.84;5017753;28;20061;-69
2021/05/19 02:01:14;;;;;;;3.08;2.25;;;;;;;8.51;88.49;98779.19;5029924;28;20043;-69
2021/05/19 02:03:40;;;;;;;3.03;2.22;;;;;;;8.44;88.82;98772.03;5034186;28;20032;-68
2021/05/19 02:06:05;;;;;;;8.07;2.13;;;;;;;8.52;88.83;98780.84;5024532;28;20037;-68
2021/05/19 02:08:30;;;;;;;2.72;2.00;;;;;;;8.45;88.73;98784.50;5014849;28;20399;-67
2021/05/19 02:10:56;;;;;;;3.10;2.17;;;;;;;8.26;89.03;98764.34;5020299;28;20398;-68
2021/05/19 02:13:21;;;;;;;3.67;2.60;;;;;;;8.29;89.55;98774.75;5033205;28;20064;-69
2021/05/19 02:15:46;;;;;;;4.70;2.47;;;;;;;8.23;90.03;98778.19;5015881;28;20025;-68
2021/05/19 02:18:12;;;;;;;4.13;2.70;;;;;;;8.18;90.34;98772.53;5033052;28;20025;-68
2021/05/19 02:20:37;;;;;;;3.80;2.35;;;;;;;8.35;90.03;98788.28;5017072;28;20032;-69
2021/05/19 02:23:02;;;;;;;5.70;2.53;;;;;;;8.12;90.34;98764.19;5018274;28;20752;-68
2021/05/19 02:25:28;;;;;;;4.47;2.40;;;;;;;8.25;90.45;98790.47;5069328;22;20105;-69
2021/05/19 02:27:55;;;;;;;3.13;2.67;;;;;;;8.20;90.59;98784.81;5073421;28;20043;-69
2021/05/19 02:30:21;;;;;;;5.15;2.53;;;;;;;8.30;90.53;98797.97;5073325;28;20035;-68
2021/05/19 02:32:48;;;;;;;3.75;2.65;;;;;;;8.33;90.62;98792.19;5072693;28;20024;-69
2021/05/19 02:35:14;;;;;;;5.78;2.67;;;;;;;8.46;89.92;98792.41;5061760;28;20033;-69
2021/05/19 02:37:40;;;;;;;5.63;2.85;;;;;;;8.49;89.78;98775.00;5071742;28;20036;-68
2021/05/19 02:40:08;;;;;;;4.68;2.95;;;;;;;8.68;89.19;98798.66;5073210;28;20476;-69
2021/05/19 02:42:33;;;;;;;4.85;2.42;;;;;;;8.66;89.01;98794.47;5072219;28;20073;-68
2021/05/19 02:44:58;;;;;;;4.13;2.45;;;;;;;8.53;89.09;98798.69;5057999;28;20382;-70
2021/05/19 02:47:24;;;;;;;5.85;2.63;;;;;;;8.58;88.68;98806.22;5054102;28;20024;-69
2021/05/19 02:49:49;;;;;;;5.70;3.08;;;;;;;8.43;89.57;98792.75;5035595;28;20029;-68
2021/05/19 02:52:14;;;;;;;4.63;2.40;;;;;;;8.46;89.80;98797.78;5066392;28;20477;-68
2021/05/19 02:54:40;;;;;;;6.85;2.58;;;;;;;8.43;89.75;98802.72;5072880;28;20031;-69
2021/05/19 02:57:07;;;;;;;5.45;2.65;;;;;;;8.39;90.25;98807.66;5071728;28;20036;-68
2021/05/19 02:59:32;;;;;;;3.65;2.40;;;;;;;8.33;89.83;98803.84;5054824;28;20028;-68
2021/05/19 03:01:58;;;;;;;4.78;2.50;;;;;;;8.39;89.78;98802.25;5068683;28;20475;-66
2021/05/19 03:04:23;;;;;;;8.75;2.70;;;;;;;8.33;90.13;98806.53;5072471;28;20028;-73
2021/05/19 03:06:49;;;;;;;5.15;2.55;;;;;;;8.20;90.55;98792.03;5071816;28;20028;-73
2021/05/19 03:09:14;;;;;;;5.22;2.80;;;;;;;8.21;90.48;98794.53;5054429;28;20497;-73
2021/05/19 03:11:40;;;;;;;5.90;3.10;;;;;;;8.29;90.36;98809.78;5072751;28;20024;-74
2021/05/19 03:14:05;;;;;;;5.10;2.70;;;;;;;8.24;90.70;98799.56;5054831;28;20070;-73
2021/05/19 03:16:31;;;;;;;4.13;2.72;;;;;;;8.40;90.24;98812.00;5064603;28;20111;-73
2021/05/19 03:18:57;;;;;;;3.80;2.50;;;;;;;8.37;90.10;98811.53;5050287;28;20029;-73
2021/05/19 03:21:23;;;;;;;6.47;2.75;;;;;;;8.36;90.18;98821.50;5051039;28;20363;-73
2021/05/19 03:23:48;;;;;;;4.20;2.38;;;;;;;8.35;90.36;98822.50;5072523;28;20060;-72
2021/05/19 03:26:14;;;;;;;3.38;2.15;;;;;;;8.24;90.18;98810.34;5060786;28;20064;-73
2021/05/19 03:28:40;;;;;;;5.10;2.10;;;;;;;8.26;89.80;98813.69;5066454;28;20028;-73
2021/05/19 03:31:05;;;;;;;5.93;2.38;;;;;;;8.25;89.66;98809.34;5072545;28;20024;-73
2021/05/19 03:33:31;;;;;;;4.93;2.40;;;;;;;8.38;89.14;98827.50;5072274;28;20052;-72
2021/05/19 03:35:56;;;;;;;4.97;2.33;;;;;;;8.39;89.57;98828.38;5068454;28;20084;-71
2021/05/19 03:38:21;;;;;;;4.68;2.03;;;;;;;8.42;89.33;98838.78;5071711;28;20020;-72
2021/05/19 03:40:47;;;;;;;3.30;2.00;;;;;;;8.54;89.05;98835.44;5054497;28;20469;-70
2021/05/19 03:43:13;;;;;;;3.65;1.63;;;;;;;8.62;87.65;98839.00;5071244;28;20063;-71
2021/05/19 03:45:38;;;;;;;3.97;2.20;;;;;;;8.56;87.59;98843.31;5054175;28;20016;-72
2021/05/19 03:48:04;;;;;;;3.45;1.95;;;;;;;8.49;88.32;98832.47;5072181;28;20538;-72
2021/05/19 03:50:30;;;;;;;4.40;2.40;;;;;;;8.48;88.35;98841.56;5053957;28;20024;-73
2021/05/19 03:53:00;;;;;;;3.45;2.08;;;;;;;8.53;88.61;98846.38;5057937;28;20502;-72
2021/05/19 03:55:25;;;;;;;4.85;2.10;;;;;;;8.47;87.92;98842.59;5045318;28;20371;-74
2021/05/19 03:57:51;;;;;;;6.30;2.00;;;;;;;8.52;87.17;98855.50;5044526;28;20028;-67
2021/05/19 04:00:20;;;;;;;3.70;1.63;;;;;;;8.53;87.51;98851.78;5066561;28;20060;-75
2021/05/19 04:02:49;;;;;;;3.50;1.65;;;;;;;8.61;87.40;98859.75;5047082;28;20016;-73
2021/05/19 04:05:16;;;;;;;2.55;1.90;;;;;;;8.58;86.96;98859.31;5076330;28;20413;-64
2021/05/19 04:07:41;;;;;;;3.70;1.98;;;;;;;8.60;86.81;98860.78;5082853;28;20025;-69
2021/05/19 04:10:07;;;;;;;3.75;2.10;;;;;;;8.52;86.95;98859.03;5068578;28;20087;-70
2021/05/19 04:12:32;;;;;;;3.55;2.05;;;;;;;8.62;87.64;98869.53;5053569;28;20382;-72
2021/05/19 04:14:57;;;;;;;3.35;1.90;;;;;;;8.53;87.27;98855.31;5071832;28;20032;-71
2021/05/19 04:17:23;;;;;;;3.50;2.03;;;;;;;8.65;86.98;98868.31;5055171;28;20028;-76
2021/05/19 04:19:48;;;;;;;3.65;2.15;;;;;;;8.44;87.45;98844.84;5053913;28;20500;-72
2021/05/19 04:22:13;;;;;;;3.75;2.08;;;;;;;8.48;87.40;98859.59;5069543;28;20082;-75
2021/05/19 04:24:38;;;;;;;5.25;2.30;;;;;;;8.55;87.55;98871.31;5071899;28;20040;-76
2021/05/19 04:27:04;;;;;;;3.83;2.40;;;;;;;8.51;87.33;98857.38;5068480;28;20028;-69
2021/05/19 04:29:30;;;;;;;5.22;2.05;;;;;;;8.58;87.04;98875.50;5054365;28;20064;-79
2021/05/19 04:31:56;;;;;;;3.38;1.70;;;;;;;8.62;87.00;98880.31;5057677;28;20047;-70
2021/05/19 04:34:21;;;;;;;3.65;1.90;;;;;;;8.60;86.94;98879.69;5055961;28;20128;-71
2021/05/19 04:36:47;;;;;;;5.28;2.00;;;;;;;8.55;87.08;98874.84;5075958;28;20115;-74
2021/05/19 04:39:12;;;;;;;6.15;2.90;;;;;;;8.69;86.47;98880.38;5056052;28;20025;-72
2021/05/19 04:41:38;;;;;;;4.97;2.30;;;;;;;8.74;86.44;98881.50;5049088;28;20024;-71
2021/05/19 04:44:03;;;;;;;9.10;2.50;;;;;;;8.66;86.69;98878.06;5061633;28;20086;-73
2021/05/19 04:46:28;;;;;;;6.40;2.40;;;;;;;8.63;86.13;98875.75;5065339;28;20031;-71
2021/05/19 04:48:58;;;;;;;6.78;2.90;;;;;;;8.73;86.44;98887.91;5059933;28;20374;-69
2021/05/19 04:51:25;;;;;;;6.97;2.08;;;;;;;8.73;85.99;98884.41;5059870;28;20052;-69
2021/05/19 04:53:50;;;;;;;2.95;2.22;;;;;;;8.78;85.82;98890.88;5069270;28;20047;-74
2021/05/19 04:56:15;;;;;;;6.07;2.97;;;;;;;8.99;85.16;98898.19;5077244;28;20466;-75
2021/05/19 04:58:41;;;;;;;3.90;2.30;;;;;;;8.93;85.15;98887.31;5063525;28;20029;-68
2021/05/19 05:01:06;;;;;;;3.60;2.40;;;;;;;9.05;84.97;98901.97;5072294;28;20556;-70
2021/05/19 05:03:31;;;;;;;5.82;2.45;;;;;;;8.95;84.59;98887.94;5075050;28;20029;-71
2021/05/19 05:05:57;;;;;;;4.68;2.90;;;;;;;9.09;84.98;98891.63;5066375;28;20478;-83
2021/05/19 05:08:23;;;;;;;5.50;2.90;;;;;;;9.15;84.38;98910.59;5058338;28;20470;-67
2021/05/19 05:10:49;;;;;;;6.95;2.92;;;;;;;9.23;84.19;98912.34;5042407;28;20040;-69
2021/05/19 05:13:14;;;;;;;4.72;2.45;;;;;;;9.24;83.86;98903.19;5055743;28;20104;-69
2021/05/19 05:15:39;;;;;;;4.70;2.92;;;;;;;9.33;84.00;98906.63;5060240;28;20792;-70
2021/05/19 05:18:05;;;;;;;4.32;2.55;;;;;;;9.13;84.58;98899.16;5054443;28;20114;-78
2021/05/19 05:20:30;;;;;;;4.60;2.53;;;;;;;9.47;83.93;98913.81;5070087;28;20027;-79
2021/05/19 05:22:55;;;;;;;8.07;3.03;;;;;;;9.61;83.27;98901.25;5067201;28;20386;-73
2021/05/19 05:25:22;;;;;;;6.20;3.33;;;;;;;9.66;82.35;98907.75;5053807;28;20099;-74
2021/05/19 05:27:47;;;;;;;4.70;2.92;;;;;;;9.81;82.01;98925.75;5076737;28;20028;-67
2021/05/19 05:30:14;;;;;;;4.57;2.75;;;;;;;9.89;82.14;98917.50;5071378;28;20020;-77
2021/05/19 05:32:39;;;;;;;5.55;3.10;;;;;;;9.98;81.67;98915.47;5066786;28;20044;-80
2021/05/19 05:35:05;;;;;;;8.07;2.95;;;;;;;10.20;80.50;98917.09;5082311;28;20477;-77
2021/05/19 05:37:31;;;;;;;5.63;3.30;;;;;;;10.41;79.49;98899.16;5066267;28;20024;-71
2021/05/19 05:39:56;;;;;;;5.35;3.15;;;;;;;10.91;77.91;98908.75;5075886;28;20422;-76
2021/05/19 05:42:21;;;;;;;5.25;2.58;;;;;;;11.02;76.96;98912.72;5058187;28;20028;-76
2021/05/19 05:44:46;;;;;;;4.07;2.42;;;;;;;11.18;76.98;98916.94;5070819;28;20482;-72
2021/05/19 05:47:12;;;;;;;4.82;2.83;;;;;;;11.38;76.29;98930.53;5070647;28;20462;-68
2021/05/19 05:49:37;;;;;;;4.88;2.70;;;;;;;11.05;76.18;98927.72;5074651;28;20029;-67
2021/05/19 05:52:03;;;;;;;9.68;3.03;;;;;;;10.86;77.96;98924.75;5069213;28;20611;-67
2021/05/19 05:54:28;;;;;;;4.38;2.45;;;;;;;10.94;77.55;98926.44;5064645;28;20029;-79
2021/05/19 05:56:55;;;;;;;5.90;2.80;;;;;;;11.10;77.31;98926.06;5062277;28;20137;-78
2021/05/19 05:59:20;;;;;;;6.10;2.70;;;;;;;11.24;76.00;98905.31;5061131;28;20024;-78
2021/05/19 06:01:46;;;;;;;5.35;2.75;;;;;;;11.57;72.95;98909.91;5062940;28;20431;-81
2021/05/19 06:04:11;;;;;;;5.47;2.20;;;;;;;11.93;72.43;98919.56;5056666;28;20031;-67
2021/05/19 06:06:36;;;;;;;4.40;2.25;;;;;;;12.44;71.09;98922.41;5071574;28;20032;-66
2021/05/19 06:09:05;;;;;;;5.03;2.30;;;;;;;12.54;70.54;98888.56;5066760;28;20477;-66
2021/05/19 06:11:31;;;;;;;5.15;2.22;;;;;;;12.83;69.60;98909.75;5054215;28;20025;-67
2021/05/19 06:13:56;;;;;;;3.70;2.22;;;;;;;12.88;70.27;98909.94;5063976;28;20020;-63
2021/05/19 06:16:21;;;;;;;4.32;2.20;;;;;;;12.58;69.75;98898.78;5050253;28;20559;-77
2021/05/19 06:18:47;;;;;;;6.85;2.33;;;;;;;12.13;70.35;98900.53;5078657;28;20038;-76
2021/05/19 06:21:12;;;;;;;2.70;2.33;;;;;;;11.94;72.77;98913.91;5060053;28;20396;-72
2021/05/19 06:23:37;;;;;;;5.07;2.35;;;;;;;11.58;73.66;98903.44;5072944;28;20024;-74
2021/05/19 06:26:02;;;;;;;3.08;2.00;;;;;;;11.57;72.66;98926.19;5055494;28;20042;-74
2021/05/19 06:28:28;;;;;;;3.58;2.28;;;;;;;10.56;75.73;98917.94;5048814;28;20017;-74
2021/05/19 06:30:55;;;;;;;3.80;2.30;;;;;;;10.88;74.66;98916.44;5037306;28;20029;-75
2021/05/19 06:33:20;;;;;;;5.85;2.47;;;;;;;11.35;73.71;98930.94;5060859;28;20532;-79
2021/05/19 06:35:46;;;;;;;4.85;2.03;;;;;;;11.68;72.66;98938.28;5056063;28;20032;-66
2021/05/19 06:38:11;;;;;;;3.97;2.40;;;;;;;11.71;72.19;98922.47;5072964;28;20032;-70
2021/05/19 06:40:36;;;;;;;3.63;2.33;;;;;;;12.10;71.54;98941.66;5049070;28;20024;-69
2021/05/19 06:43:02;;;;;;;8.40;2.20;;;;;;;12.85;69.92;98934.81;5065617;28;20047;-69
2021/05/19 06:45:27;;;;;;;3.00;2.20;;;;;;;15.81;61.01;98928.84;5060285;28;20021;-69
2021/05/19 06:47:52;;;;;;;2.83;1.90;;;;;;;18.12;52.96;98901.63;5064482;28;20021;-71
2021/05/19 06:50:18;;;;;;;4.57;1.80;;;;;;;19.69;51.06;98912.13;5072699;28;20028;-69
2021/05/19 06:52:44;;;;;;;5.55;1.98;;;;;;;20.59;48.48;98917.78;5045610;28;20470;-66
2021/05/19 06:55:12;;;;;;;2.83;1.63;;;;;;;20.12;48.56;98930.34;5061135;28;20039;-66
2021/05/19 06:57:37;;;;;;;3.60;1.70;;;;;;;19.56;48.66;98921.56;5047228;28;20021;-66
2021/05/19 07:00:04;;;;;;;3.17;1.67;;;;;;;19.39;49.46;98929.91;5063611;28;20024;-66
2021/05/19 07:02:30;;;;;;;7.30;1.77;;;;;;;20.07;48.75;98924.00;5072601;28;20108;-67
2021/05/19 07:04:55;;;;;;;5.82;1.80;;;;;;;20.11;48.22;98931.44;5067773;28;20020;-67
2021/05/19 07:07:20;;;;;;;4.22;1.42;;;;;;;22.20;45.07;98924.31;5061266;28;20030;-66
2021/05/19 07:09:46;;;;;;;4.45;1.80;;;;;;;22.78;41.79;98924.75;5060757;28;20428;-67
2021/05/19 07:12:11;;;;;;;6.10;1.70;;;;;;;23.91;40.70;98935.28;5061635;28;20036;-67
2021/05/19 07:14:45;;;;;;;3.90;1.63;;;;;;;23.20;41.04;98931.81;5062580;28;20502;-66
2021/05/19 07:17:10;;;;;;;1.88;1.27;;;;;;;20.82;46.69;98926.69;5067109;28;20367;-72
2021/05/19 07:19:35;;;;;;;3.50;1.88;;;;;;;18.39;51.10;98929.13;5039591;28;20031;-67
2021/05/19 07:22:01;;;;;;;1.85;1.20;;;;;;;19.33;49.40;98921.88;5052790;28;20044;-67
2021/05/19 07:24:26;;;;;;;3.30;1.70;;;;;;;19.83;48.47;98929.84;5060890;28;20115;-67
2021/05/19 07:26:52;;;;;;;4.07;1.60;;;;;;;19.42;48.30;98920.34;5053829;28;20390;-73
2021/05/19 07:29:17;;;;;;;3.53;1.13;;;;;;;19.14;50.38;98924.13;5051100;28;20033;-67
2021/05/19 07:31:42;;;;;;;3.20;1.33;;;;;;;19.16;49.67;98920.06;5070162;28;20021;-67
2021/05/19 07:34:08;;;;;;;2.13;1.35;;;;;;;18.14;52.55;98913.16;5063770;28;20456;-68
2021/05/19 07:36:34;;;;;;;5.88;1.67;;;;;;;15.72;58.60;98924.81;5060024;28;20164;-64
2021/05/19 07:38:59;;;;;;;8.27;1.73;;;;;;;15.50;60.17;98925.28;5071116;28;20079;-68
2021/05/19 07:41:26;;;;;;;3.92;1.48;;;;;;;15.21;62.49;98935.13;5059828;28;20025;-65
2021/05/19 07:43:51;;;;;;;9.77;1.80;;;;;;;14.53;66.83;98943.50;5048712;28;20033;-66
2021/05/19 07:46:17;;;;;;;3.25;1.30;;;;;;;13.94;67.99;98926.66;5059796;28;20025;-66
2021/05/19 07:48:42;;;;;;;9.32;1.80;;;;;;;13.25;68.90;98948.19;5059727;28;20043;-66
2021/05/19 07:51:08;;;;;;;6.90;1.90;;;;;;;12.66;73.64;98958.25;5059067;28;20059;-65
2021/05/19 07:53:33;;;;;;;7.90;2.10;;;;;;;12.27;73.35;98941.00;5059228;28;20104;-65
2021/05/19 07:56:38;;;;;;;5.45;2.03;;;;;;;12.29;73.34;98951.66;5056957;28;20040;-65
2021/05/19 07:59:26;;;;;;;3.42;2.10;;;;;;;12.14;74.85;98942.91;5053532;28;20083;-67
2021/05/19 08:01:54;;;;;;;6.63;2.17;;;;;;;12.19;74.12;98953.97;5056115;28;20123;-69
2021/05/19 08:04:19;;;;;;;2.95;1.98;;;;;;;11.83;74.63;98950.59;5056752;28;20021;-77
2021/05/19 08:06:44;;;;;;;3.63;2.10;;;;;;;11.75;75.17;98944.53;5048914;28;20078;-75
2021/05/19 08:09:09;;;;;;;4.03;2.22;;;;;;;12.13;74.80;98947.50;5069398;28;20035;-74
2021/05/19 08:11:37;;;;;;;4.10;2.33;;;;;;;12.24;73.58;98960.44;5071193;28;20035;-71
2021/05/19 08:14:02;;;;;;;2.35;2.00;;;;;;;12.43;73.90;98945.16;5035509;28;20615;-73
2021/05/19 08:16:28;;;;;;;3.80;2.03;;;;;;;12.67;73.10;98953.66;5044491;28;20028;-74
2021/05/19 08:18:53;;;;;;;2.92;1.90;;;;;;;12.86;72.04;98944.63;5070351;28;20020;-73
2021/05/19 08:21:18;;;;;;;4.82;2.30;;;;;;;13.12;70.88;98937.41;5069881;28;20454;-72
2021/05/19 08:23:44;;;;;;;4.18;1.90;;;;;;;13.68;69.99;98939.41;5053210;28;20021;-77
2021/05/19 08:26:09;;;;;;;5.47;2.00;;;;;;;14.36;68.11;98941.34;5072768;22;20055;-73
2021/05/19 08:28:37;;;;;;;2.75;1.75;;;;;;;14.78;65.94;98951.63;5027657;28;20072;-71
2021/05/19 08:31:04;;;;;;;2.50;1.80;;;;;;;15.20;64.52;98940.84;5028427;28;20021;-72
2021/05/19 08:33:30;;;;;;;2.85;1.58;;;;;;;15.16;64.45;98945.91;5028675;28;20083;-72
2021/05/19 08:35:55;;;;;;;3.33;2.03;;;;;;;15.96;62.70;98923.78;5009771;28;20433;-73
2021/05/19 08:38:21;;;;;;;4.35;2.00;;;;;;;15.92;60.93;98922.56;5021745;28;20050;-81
2021/05/19 08:40:46;;;;;;;3.47;1.55;;;;;;;16.49;59.49;98932.91;5003996;28;20029;-75
2021/05/19 08:43:12;;;;;;;4.78;1.90;;;;;;;16.17;60.06;98932.47;4991935;28;20105;-75
2021/05/19 08:45:38;;;;;;;2.10;1.60;;;;;;;16.40;60.34;98935.19;4995929;28;20017;-76
2021/05/19 08:48:04;;;;;;;3.30;1.60;;;;;;;16.40;61.27;98935.19;4997898;28;20030;-78
2021/05/19 08:50:31;;;;;;;2.83;1.42;;;;;;;17.29;58.13;98945.84;5012741;28;20026;-75
2021/05/19 08:52:58;;;;;;;2.47;1.35;;;;;;;16.73;58.92;98936.44;4994080;28;20076;-75
2021/05/19 08:55:24;;;;;;;1.67;1.40;;;;;;;16.19;57.50;98941.22;5018814;28;20144;-78
2021/05/19 08:57:50;;;;;;;2.25;1.35;;;;;;;17.22;57.26;98931.50;5015419;28;20442;-76
2021/05/19 09:00:16;;;;;;;2.58;1.50;;;;;;;18.67;54.25;98932.81;4995002;28;20049;-79
2021/05/19 09:03:02;;;;;;;3.08;1.60;;;;;;;19.41;50.88;98935.13;4994275;28;20072;-79
2021/05/19 09:05:30;;;;;;;2.78;1.52;;;;;;;20.48;49.61;98921.53;4995353;28;20068;-78
2021/05/19 09:08:12;;;;;;;4.13;1.80;;;;;;;20.20;50.51;98928.19;4995127;28;20029;-77
2021/05/19 09:10:42;;;;;;;2.55;1.40;;;;;;;19.47;51.20;98934.13;4995177;28;20056;-75
2021/05/19 09:13:30;;;;;;;2.83;1.50;;;;;;;18.51;53.21;98916.16;5002830;28;20538;-75
2021/05/19 09:15:56;;;;;;;3.20;1.35;;;;;;;18.62;53.30;98912.47;5013469;28;20045;-77
2021/05/19 09:18:21;;;;;;;5.50;1.30;;;;;;;19.60;50.98;98900.78;5002441;28;20112;-73
2021/05/19 09:20:52;;;;;;;2.40;1.30;;;;;;;20.26;47.31;98903.25;5015257;28;20034;-75
2021/05/19 09:23:20;;;;;;;2.15;1.25;;;;;;;21.74;45.96;98902.22;4995552;28;20029;-76
2021/05/19 09:26:06;;;;;;;3.57;1.47;;;;;;;22.39;45.94;98897.00;5015892;28;20034;-69
2021/05/19 09:28:32;;;;;;;3.85;1.58;;;;;;;20.77;47.13;98903.56;5014555;28;20029;-69
2021/05/19 09:30:57;;;;;;;2.50;1.50;;;;;;;19.53;48.64;98897.41;5015426;28;20037;-73
2021/05/19 09:33:27;;;;;;;2.65;1.52;;;;;;;18.42;53.01;98898.53;5014650;28;20025;-74
2021/05/19 09:36:24;;;;;;;3.63;1.88;;;;;;;17.43;54.88;98915.47;4996231;28;20021;-72
2021/05/19 09:38:52;;;;;;;4.90;1.80;;;;;;;16.44;56.91;98914.50;5013860;28;20018;-74
2021/05/19 09:41:22;;;;;;;4.75;1.55;;;;;;;16.08;57.28;98914.75;5015035;28;20056;-73
2021/05/19 09:43:51;;;;;;;5.60;1.55;;;;;;;18.06;52.52;98914.41;5011584;28;20030;-69
2021/05/19 09:46:40;;;;;;;2.13;1.20;;;;;;;17.72;53.35;98902.59;5013369;28;20028;-69
2021/05/19 09:49:17;;;;;;;4.40;1.42;;;;;;;16.26;55.12;98920.09;5013945;28;20053;-74
2021/05/19 09:51:53;;;;;;;2.10;0.90;;;;;;;15.32;55.87;98919.88;5013626;28;20036;-69
2021/05/19 09:54:33;;;;;;;2.78;1.40;;;;;;;14.46;55.76;98924.47;5011897;28;20036;-68
2021/05/19 09:57:00;;;;;;;5.40;1.38;;;;;;;14.46;58.20;98917.16;5013074;28;20032;-66
2021/05/19 09:59:26;;;;;;;2.63;0.90;;;;;;;18.16;49.23;98906.34;5014190;28;20030;-67
2021/05/19 10:01:53;;;;;;;1.98;0.75;;;;;;;21.28;43.79;98897.44;5012098;28;20037;-68
2021/05/19 10:04:25;;;;;;;4.20;0.90;;;;;;;23.95;38.61;98886.63;5012914;28;20045;-68
2021/05/19 10:06:50;;;;;;;5.18;0.82;;;;;;;23.07;39.09;98894.59;5013932;28;20048;-66
2021/05/19 10:09:16;;;;;;;1.30;0.75;;;;;;;21.28;41.78;98896.63;5013403;28;20503;-68
2021/05/19 10:11:43;;;;;;;2.17;0.75;;;;;;;22.52;40.41;98893.66;5013901;28;20029;-66
2021/05/19 10:14:11;;;;;;;2.53;0.60;;;;;;;23.21;34.88;98882.94;5012715;28;20109;-66
2021/05/19 10:16:40;;;;;;;2.28;0.68;;;;;;;23.35;34.16;98871.00;5013003;28;20025;-67
2021/05/19 10:19:07;;;;;;;1.58;0.63;;;;;;;24.52;34.07;98881.38;5013521;28;20037;-67
2021/05/19 10:21:35;;;;;;;2.75;0.50;;;;;;;25.55;32.77;98868.72;5014258;28;20041;-67
2021/05/19 10:24:11;;;;;;;1.67;0.70;;;;;;;25.83;33.33;98877.13;5010393;28;20080;-67
2021/05/19 10:27:03;;;;;;;1.20;0.73;;;;;;;24.76;37.30;98884.16;5009046;28;20034;-67
2021/05/19 10:29:53;;;;;;;2.22;0.70;;;;;;;25.63;34.36;98869.19;5010527;28;20048;-66
2021/05/19 10:32:21;;;;;;;2.17;0.73;;;;;;;26.02;34.56;98866.88;5010809;28;20036;-67
2021/05/19 10:34:48;;;;;;;1.77;0.63;;;;;;;25.74;33.73;98865.13;5009722;28;20048;-67
2021/05/19 10:37:29;;;;;;;1.70;0.70;;;;;;;24.52;33.34;98873.91;5009433;28;20279;-67
2021/05/19 10:40:06;;;;;;;1.92;0.70;;;;;;;25.75;33.24;98869.53;4991282;28;20514;-67
2021/05/19 10:42:35;;;;;;;1.38;0.50;;;;;;;26.50;31.09;98864.91;5010294;28;20026;-67
2021/05/19 10:45:04;;;;;;;0.85;0.40;;;;;;;26.92;32.06;98865.78;5009467;28;20072;-67
2021/05/19 10:47:29;;;;;;;4.07;0.50;;;;;;;26.45;30.35;98858.31;5008950;28;20045;-67
2021/05/19 10:52:27;;;;;;;2.00;0.57;;;;;;;26.73;29.80;98852.84;5008773;28;20125;-67
2021/05/19 10:57:43;;;;;;;1.45;0.45;;;;;;;25.47;31.56;98855.56;5010344;28;20044;-71
2021/05/19 11:00:22;;;;;;;1.75;0.57;;;;;;;25.58;32.00;98853.44;5011718;28;20025;-72
2021/05/19 11:05:32;;;;;;;2.28;0.68;;;;;;;24.88;31.67;98838.34;5009608;28;20034;-70
2021/05/19 11:08:06;;;;;;;0.95;0.40;;;;;;;24.25;35.46;98842.09;5009805;28;20484;-70
2021/05/19 11:10:54;;;;;;;3.50;0.70;;;;;;;24.98;33.48;98825.50;5011565;28;20079;-71
2021/05/19 11:13:22;;;;;;;0.73;0.38;;;;;;;26.07;31.34;98834.63;5009178;28;20022;-75
2021/05/19 11:18:18;;;;;;;;;;;;;;;25.64;32.33;98826.47;5009858;28;20042;-70
2021/05/19 11:20:44;;;;;;;1.80;0.80;;;;;;;24.86;31.18;98817.63;5011069;28;19920;-69
2021/05/19 11:23:14;;;;;;;2.10;0.60;;;;;;;24.37;34.14;98819.56;5009256;28;20357;-71
2021/05/19 11:25:40;;;;;;;0.95;0.55;;;;;;;23.97;35.07;98823.56;5008513;28;20025;-69
2021/05/19 11:28:06;;;;;;;0.95;0.50;;;;;;;23.45;35.82;98823.16;5008955;28;20383;-75
2021/05/19 11:30:31;;;;;;;2.38;0.50;;;;;;;22.37;33.25;98824.78;4991501;28;20038;-68
2021/05/19 11:33:15;;;;;;;0.80;0.47;;;;;;;23.67;31.29;98814.41;5009712;28;20041;-69
2021/05/19 11:35:41;;;;;;;1.85;0.47;;;;;;;24.36;31.57;98808.78;5009590;28;20677;-70
2021/05/19 11:38:09;;;;;;;2.28;0.52;;;;;;;24.52;30.10;98802.00;5009063;28;20034;-77
2021/05/19 11:40:43;;;;;;;4.15;0.50;;;;;;;25.74;28.87;98798.59;5012905;28;20080;-73
2021/05/19 11:43:11;;;;;;;2.08;0.52;;;;;;;26.11;29.81;98806.00;5012890;28;20113;-72
2021/05/19 11:45:37;;;;;;;1.17;0.43;;;;;;;26.78;30.03;98802.75;5010371;28;20101;-75
2021/05/19 11:48:03;;;;;;;1.83;0.47;;;;;;;27.74;29.12;98798.84;5009342;28;20495;-69
2021/05/19 11:50:31;;;;;;;0.75;0.50;;;;;;;27.76;28.51;98802.16;5009704;28;20041;-69